sensor_id;sensor_type;location;lat;lon;timestamp;pressure;altitude;pressure_sealevel;temperature;humidity
79461;BME280;68929;42.666;23.324;2023-06-01T00:02:15;94671.97;;;16.90;76.22
79461;BME280;68929;42.666;23.324;2023-06-01T00:04:41;94700.41;;;17.06;76.17
79461;BME280;68929;42.666;23.324;2023-06-01T00:07:07;94691.88;;;17.09;76.38
79461;BME280;68929;42.666;23.324;2023-06-01T00:09:33;94682.75;;;17.00;76.15
79461;BME280;68929;42.666;23.324;2023-06-01T00:11:58;94693.06;;;17.18;75.71
79461;BME280;68929;42.666;23.324;2023-06-01T00:14:24;94701.13;;;17.23;75.35
79461;BME280;68929;42.666;23.324;2023-06-01T00:16:49;94684.94;;;17.08;75.97
79461;BME280;68929;42.666;23.324;2023-06-01T00:19:17;94689.44;;;17.29;76.02
79461;BME280;68929;42.666;23.324;2023-06-01T00:21:43;94682.44;;;17.23;76.02
79461;BME280;68929;42.666;23.324;2023-06-01T00:24:08;94680.81;;;17.22;76.05
79461;BME280;68929;42.666;23.324;2023-06-01T00:26:33;94682.44;;;17.23;75.80
79461;BME280;68929;42.666;23.324;2023-06-01T00:28:59;94687.41;;;17.41;75.54
79461;BME280;68929;42.666;23.324;2023-06-01T00:31:25;94692.53;;;17.47;74.67
79461;BME280;68929;42.666;23.324;2023-06-01T00:33:51;94686.50;;;17.30;74.82
79461;BME280;68929;42.666;23.324;2023-06-01T00:36:17;94684.56;;;17.26;75.18
79461;BME280;68929;42.666;23.324;2023-06-01T00:38:44;94691.56;;;17.27;75.26
79461;BME280;68929;42.666;23.324;2023-06-01T00:41:10;94702.81;;;17.34;74.37
79461;BME280;68929;42.666;23.324;2023-06-01T00:43:35;94674.81;;;17.10;73.35
79461;BME280;68929;42.666;23.324;2023-06-01T00:46:00;94672.09;;;17.05;75.08
79461;BME280;68929;42.666;23.324;2023-06-01T00:48:26;94675.31;;;17.07;74.79
79461;BME280;68929;42.666;23.324;2023-06-01T00:50:52;94667.84;;;17.09;74.68
79461;BME280;68929;42.666;23.324;2023-06-01T00:53:19;94684.41;;;17.06;74.39
79461;BME280;68929;42.666;23.324;2023-06-01T00:55:45;94674.63;;;16.90;75.42
79461;BME280;68929;42.666;23.324;2023-06-01T00:58:12;94690.66;;;16.90;73.61
79461;BME280;68929;42.666;23.324;2023-06-01T01:00:38;94693.16;;;16.74;75.30
79461;BME280;68929;42.666;23.324;2023-06-01T01:03:04;94691.13;;;16.60;76.83
79461;BME280;68929;42.666;23.324;2023-06-01T01:05:34;94694.38;;;16.67;76.75
79461;BME280;68929;42.666;23.324;2023-06-01T01:11:06;94707.09;;;16.82;76.29
79461;BME280;68929;42.666;23.324;2023-06-01T01:16:25;94715.19;;;16.65;76.19
79461;BME280;68929;42.666;23.324;2023-06-01T01:25:21;94708.16;;;16.81;75.45
79461;BME280;68929;42.666;23.324;2023-06-01T01:30:53;94708.28;;;16.91;74.65
79461;BME280;68929;42.666;23.324;2023-06-01T01:33:21;94702.44;;;16.94;74.39
79461;BME280;68929;42.666;23.324;2023-06-01T01:35:48;94692.97;;;17.08;74.61
79461;BME280;68929;42.666;23.324;2023-06-01T01:38:14;94693.47;;;17.05;75.19
79461;BME280;68929;42.666;23.324;2023-06-01T01:40:40;94695.47;;;17.19;73.92
79461;BME280;68929;42.666;23.324;2023-06-01T01:43:05;94699.16;;;17.13;74.80
79461;BME280;68929;42.666;23.324;2023-06-01T01:45:31;94695.66;;;17.13;73.67
79461;BME280;68929;42.666;23.324;2023-06-01T01:48:05;94711.19;;;17.16;74.59
79461;BME280;68929;42.666;23.324;2023-06-01T01:50:57;94709.53;;;17.10;73.65
79461;BME280;68929;42.666;23.324;2023-06-01T01:53:25;94685.91;;;16.97;74.05
79461;BME280;68929;42.666;23.324;2023-06-01T01:55:52;94693.19;;;16.79;74.89
79461;BME280;68929;42.666;23.324;2023-06-01T01:58:18;94688.81;;;16.68;75.13
79461;BME280;68929;42.666;23.324;2023-06-01T02:00:44;94700.53;;;16.67;74.86
79461;BME280;68929;42.666;23.324;2023-06-01T02:03:17;94705.31;;;16.65;75.45
79461;BME280;68929;42.666;23.324;2023-06-01T02:05:43;94692.53;;;16.67;75.31
79461;BME280;68929;42.666;23.324;2023-06-01T02:08:08;94690.97;;;16.71;75.23
79461;BME280;68929;42.666;23.324;2023-06-01T02:10:34;94713.69;;;16.96;74.59
79461;BME280;68929;42.666;23.324;2023-06-01T02:13:00;94692.41;;;16.79;74.03
79461;BME280;68929;42.666;23.324;2023-06-01T02:15:25;94714.31;;;16.81;74.99
79461;BME280;68929;42.666;23.324;2023-06-01T02:17:51;94708.16;;;16.81;73.97
79461;BME280;68929;42.666;23.324;2023-06-01T02:20:16;94694.00;;;16.58;75.28
79461;BME280;68929;42.666;23.324;2023-06-01T02:22:42;94701.09;;;16.69;75.29
79461;BME280;68929;42.666;23.324;2023-06-01T02:25:08;94717.72;;;16.76;75.17
79461;BME280;68929;42.666;23.324;2023-06-01T02:27:33;94715.53;;;16.73;75.68
79461;BME280;68929;42.666;23.324;2023-06-01T02:29:59;94702.53;;;16.55;75.14
79461;BME280;68929;42.666;23.324;2023-06-01T02:32:24;94702.16;;;16.68;75.22
79461;BME280;68929;42.666;23.324;2023-06-01T02:34:50;94714.50;;;16.74;75.43
79461;BME280;68929;42.666;23.324;2023-06-01T02:37:15;94706.63;;;16.63;75.85
79461;BME280;68929;42.666;23.324;2023-06-01T02:39:41;94690.50;;;16.36;76.48
79461;BME280;68929;42.666;23.324;2023-06-01T02:42:07;94701.88;;;16.48;76.28
79461;BME280;68929;42.666;23.324;2023-06-01T02:44:33;94717.66;;;16.71;75.72
79461;BME280;68929;42.666;23.324;2023-06-01T02:46:58;94712.88;;;16.73;76.11
79461;BME280;68929;42.666;23.324;2023-06-01T02:49:23;94717.13;;;16.96;75.53
79461;BME280;68929;42.666;23.324;2023-06-01T02:51:49;94710.00;;;17.02;75.09
79461;BME280;68929;42.666;23.324;2023-06-01T02:54:14;94694.47;;;16.99;74.85
79461;BME280;68929;42.666;23.324;2023-06-01T02:56:40;94710.47;;;16.99;74.85
79461;BME280;68929;42.666;23.324;2023-06-01T02:59:05;94700.91;;;16.54;76.13
79461;BME280;68929;42.666;23.324;2023-06-01T03:01:31;94711.09;;;16.79;75.25
79461;BME280;68929;42.666;23.324;2023-06-01T03:04:01;94703.59;;;16.38;73.96
79461;BME280;68929;42.666;23.324;2023-06-01T03:06:30;94714.22;;;15.94;76.01
79461;BME280;68929;42.666;23.324;2023-06-01T03:08:57;94722.66;;;15.53;76.73
79461;BME280;68929;42.666;23.324;2023-06-01T03:11:23;94710.44;;;15.12;79.99
79461;BME280;68929;42.666;23.324;2023-06-01T03:13:49;94722.91;;;15.23;80.62
79461;BME280;68929;42.666;23.324;2023-06-01T03:16:15;94726.78;;;15.33;80.63
79461;BME280;68929;42.666;23.324;2023-06-01T03:18:42;94734.84;;;15.38;80.68
79461;BME280;68929;42.666;23.324;2023-06-01T03:21:07;94726.53;;;15.17;80.62
79461;BME280;68929;42.666;23.324;2023-06-01T03:23:33;94717.88;;;15.10;80.70
79461;BME280;68929;42.666;23.324;2023-06-01T03:25:58;94747.94;;;15.23;80.32
79461;BME280;68929;42.666;23.324;2023-06-01T03:28:24;94723.97;;;14.94;79.94
79461;BME280;68929;42.666;23.324;2023-06-01T03:30:50;94716.06;;;14.83;80.74
79461;BME280;68929;42.666;23.324;2023-06-01T03:33:16;94731.28;;;14.87;81.15
79461;BME280;68929;42.666;23.324;2023-06-01T03:35:41;94723.44;;;15.09;80.69
79461;BME280;68929;42.666;23.324;2023-06-01T03:38:09;94734.63;;;14.94;81.18
79461;BME280;68929;42.666;23.324;2023-06-01T03:40:34;94736.97;;;14.91;81.20
79461;BME280;68929;42.666;23.324;2023-06-01T03:43:00;94740.75;;;14.95;81.09
79461;BME280;68929;42.666;23.324;2023-06-01T03:45:25;94714.75;;;14.85;80.94
79461;BME280;68929;42.666;23.324;2023-06-01T03:47:51;94728.19;;;15.07;80.55
79461;BME280;68929;42.666;23.324;2023-06-01T03:50:16;94732.25;;;15.09;80.38
79461;BME280;68929;42.666;23.324;2023-06-01T03:52:42;94682.53;;;14.98;80.15
79461;BME280;68929;42.666;23.324;2023-06-01T03:55:07;94725.97;;;15.15;80.51
79461;BME280;68929;42.666;23.324;2023-06-01T03:57:36;94740.97;;;15.21;80.72
79461;BME280;68929;42.666;23.324;2023-06-01T04:00:04;94733.72;;;15.34;80.26
79461;BME280;68929;42.666;23.324;2023-06-01T04:02:46;94746.66;;;15.42;76.78
79461;BME280;68929;42.666;23.324;2023-06-01T04:05:13;94737.84;;;14.96;78.25
79461;BME280;68929;42.666;23.324;2023-06-01T04:07:46;94751.28;;;15.01;79.17
79461;BME280;68929;42.666;23.324;2023-06-01T04:10:12;94723.41;;;15.37;78.78
79461;BME280;68929;42.666;23.324;2023-06-01T04:12:45;94732.31;;;15.43;77.15
79461;BME280;68929;42.666;23.324;2023-06-01T04:15:12;94743.47;;;15.56;76.82
79461;BME280;68929;42.666;23.324;2023-06-01T04:17:38;94720.78;;;15.70;75.62
79461;BME280;68929;42.666;23.324;2023-06-01T04:20:05;94726.97;;;16.09;75.38
79461;BME280;68929;42.666;23.324;2023-06-01T04:22:32;94729.28;;;16.60;74.96
79461;BME280;68929;42.666;23.324;2023-06-01T04:24:57;94735.75;;;16.64;73.20
79461;BME280;68929;42.666;23.324;2023-06-01T04:27:22;94740.44;;;16.57;73.58
79461;BME280;68929;42.666;23.324;2023-06-01T04:29:49;94726.91;;;16.26;74.58
79461;BME280;68929;42.666;23.324;2023-06-01T04:32:15;94731.81;;;16.72;72.05
79461;BME280;68929;42.666;23.324;2023-06-01T04:34:46;94747.06;;;16.98;71.71
79461;BME280;68929;42.666;23.324;2023-06-01T04:37:14;94737.16;;;16.50;72.43
79461;BME280;68929;42.666;23.324;2023-06-01T04:39:40;94754.19;;;16.11;74.55
79461;BME280;68929;42.666;23.324;2023-06-01T04:42:07;94756.09;;;16.32;75.58
79461;BME280;68929;42.666;23.324;2023-06-01T04:44:36;94750.06;;;16.20;75.03
79461;BME280;68929;42.666;23.324;2023-06-01T04:47:02;94738.88;;;15.85;75.72
79461;BME280;68929;42.666;23.324;2023-06-01T04:49:28;94740.06;;;15.77;76.88
79461;BME280;68929;42.666;23.324;2023-06-01T04:51:54;94749.94;;;15.77;77.33
79461;BME280;68929;42.666;23.324;2023-06-01T04:54:19;94738.72;;;15.75;77.50
79461;BME280;68929;42.666;23.324;2023-06-01T04:56:46;94712.84;;;15.42;76.40
79461;BME280;68929;42.666;23.324;2023-06-01T04:59:11;94757.69;;;15.45;78.05
79461;BME280;68929;42.666;23.324;2023-06-01T05:01:37;94768.09;;;15.63;77.64
79461;BME280;68929;42.666;23.324;2023-06-01T05:04:04;94762.84;;;15.52;78.61
79461;BME280;68929;42.666;23.324;2023-06-01T05:06:30;94751.78;;;15.60;78.66
79461;BME280;68929;42.666;23.324;2023-06-01T05:08:55;94771.00;;;15.34;79.17
79461;BME280;68929;42.666;23.324;2023-06-01T05:11:26;94775.94;;;15.70;79.26
79461;BME280;68929;42.666;23.324;2023-06-01T05:13:57;94734.28;;;15.80;79.14
79461;BME280;68929;42.666;23.324;2023-06-01T05:16:27;94751.06;;;15.81;78.20
79461;BME280;68929;42.666;23.324;2023-06-01T05:19:01;94750.09;;;15.87;78.47
79461;BME280;68929;42.666;23.324;2023-06-01T05:21:27;94737.63;;;16.09;77.00
79461;BME280;68929;42.666;23.324;2023-06-01T05:24:07;94756.78;;;16.44;77.50
79461;BME280;68929;42.666;23.324;2023-06-01T05:26:32;94771.78;;;16.67;76.65
79461;BME280;68929;42.666;23.324;2023-06-01T05:28:58;94752.56;;;16.48;75.98
79461;BME280;68929;42.666;23.324;2023-06-01T05:31:23;94734.91;;;16.04;76.94
79461;BME280;68929;42.666;23.324;2023-06-01T05:33:49;94748.94;;;16.38;76.62
79461;BME280;68929;42.666;23.324;2023-06-01T05:36:16;94706.94;;;16.28;75.17
79461;BME280;68929;42.666;23.324;2023-06-01T05:38:42;94754.28;;;16.54;75.99
79461;BME280;68929;42.666;23.324;2023-06-01T05:41:08;94747.16;;;16.60;75.13
79461;BME280;68929;42.666;23.324;2023-06-01T05:43:36;94754.28;;;16.54;75.36
79461;BME280;68929;42.666;23.324;2023-06-01T05:46:02;94754.78;;;16.95;75.74
79461;BME280;68929;42.666;23.324;2023-06-01T05:48:28;94748.75;;;16.83;75.26
79461;BME280;68929;42.666;23.324;2023-06-01T05:50:58;94749.31;;;17.33;73.49
79461;BME280;68929;42.666;23.324;2023-06-01T05:53:24;94735.44;;;17.36;72.79
79461;BME280;68929;42.666;23.324;2023-06-01T05:55:53;94763.38;;;17.77;72.31
79461;BME280;68929;42.666;23.324;2023-06-01T05:58:24;94749.69;;;17.73;69.97
79461;BME280;68929;42.666;23.324;2023-06-01T06:00:49;94755.88;;;18.10;69.31
79461;BME280;68929;42.666;23.324;2023-06-01T06:03:15;94730.78;;;18.21;70.70
79461;BME280;68929;42.666;23.324;2023-06-01T06:05:41;94771.69;;;18.54;70.16
79461;BME280;68929;42.666;23.324;2023-06-01T06:08:06;94773.38;;;18.65;70.18
79461;BME280;68929;42.666;23.324;2023-06-01T06:10:32;94760.19;;;18.53;68.81
79461;BME280;68929;42.666;23.324;2023-06-01T06:13:03;94759.38;;;18.53;68.63
79461;BME280;68929;42.666;23.324;2023-06-01T06:15:29;94757.75;;;19.08;68.01
79461;BME280;68929;42.666;23.324;2023-06-01T06:17:55;94767.50;;;19.35;67.96
79461;BME280;68929;42.666;23.324;2023-06-01T06:20:20;94756.91;;;18.98;67.68
79461;BME280;68929;42.666;23.324;2023-06-01T06:22:58;94753.63;;;18.86;69.29
79461;BME280;68929;42.666;23.324;2023-06-01T06:25:23;94765.34;;;18.70;69.48
79461;BME280;68929;42.666;23.324;2023-06-01T06:27:48;94762.94;;;18.68;69.13
79461;BME280;68929;42.666;23.324;2023-06-01T06:30:16;94747.06;;;18.57;68.03
79461;BME280;68929;42.666;23.324;2023-06-01T06:32:44;94773.69;;;18.36;69.49
79461;BME280;68929;42.666;23.324;2023-06-01T06:35:10;94772.41;;;18.91;68.79
79461;BME280;68929;42.666;23.324;2023-06-01T06:37:40;94761.84;;;19.31;68.14
79461;BME280;68929;42.666;23.324;2023-06-01T06:40:07;94758.13;;;18.70;68.35
79461;BME280;68929;42.666;23.324;2023-06-01T06:42:33;94774.03;;;18.92;69.11
79461;BME280;68929;42.666;23.324;2023-06-01T06:44:58;94763.44;;;19.32;67.10
79461;BME280;68929;42.666;23.324;2023-06-01T06:47:23;94756.56;;;19.56;66.40
79461;BME280;68929;42.666;23.324;2023-06-01T06:49:50;94760.31;;;19.80;66.29
79461;BME280;68929;42.666;23.324;2023-06-01T06:52:17;94767.81;;;19.99;64.26
79461;BME280;68929;42.666;23.324;2023-06-01T06:54:48;94745.81;;;20.12;65.54
79461;BME280;68929;42.666;23.324;2023-06-01T06:57:13;94742.06;;;19.92;65.13
79461;BME280;68929;42.666;23.324;2023-06-01T06:59:38;94757.13;;;19.93;63.59
79461;BME280;68929;42.666;23.324;2023-06-01T07:02:04;94765.38;;;20.57;63.36
79461;BME280;68929;42.666;23.324;2023-06-01T07:04:30;94765.44;;;20.27;62.94
79461;BME280;68929;42.666;23.324;2023-06-01T07:06:55;94756.31;;;19.98;64.20
79461;BME280;68929;42.666;23.324;2023-06-01T07:09:21;94757.66;;;20.36;63.74
79461;BME280;68929;42.666;23.324;2023-06-01T07:11:46;94762.41;;;20.59;62.60
79461;BME280;68929;42.666;23.324;2023-06-01T07:14:13;94750.47;;;21.05;61.87
79461;BME280;68929;42.666;23.324;2023-06-01T07:16:39;94757.06;;;21.28;60.72
79461;BME280;68929;42.666;23.324;2023-06-01T07:19:05;94765.03;;;21.48;60.58
79461;BME280;68929;42.666;23.324;2023-06-01T07:21:30;94744.91;;;20.71;61.22
79461;BME280;68929;42.666;23.324;2023-06-01T07:23:56;94752.88;;;20.97;62.37
79461;BME280;68929;42.666;23.324;2023-06-01T07:26:21;94733.81;;;20.98;62.55
79461;BME280;68929;42.666;23.324;2023-06-01T07:28:58;94762.84;;;20.96;61.32
79461;BME280;68929;42.666;23.324;2023-06-01T07:31:34;94742.94;;;20.97;62.32
79461;BME280;68929;42.666;23.324;2023-06-01T07:34:00;94741.34;;;20.96;61.80
79461;BME280;68929;42.666;23.324;2023-06-01T07:36:25;94738.59;;;21.11;62.09
79461;BME280;68929;42.666;23.324;2023-06-01T07:38:58;94736.44;;;21.13;61.29
79461;BME280;68929;42.666;23.324;2023-06-01T07:41:23;94738.38;;;21.03;61.11
79461;BME280;68929;42.666;23.324;2023-06-01T07:43:49;94746.59;;;21.26;60.84
79461;BME280;68929;42.666;23.324;2023-06-01T07:46:16;94714.94;;;21.13;61.18
79461;BME280;68929;42.666;23.324;2023-06-01T07:48:51;94745.31;;;21.63;61.95
79461;BME280;68929;42.666;23.324;2023-06-01T07:51:17;94720.00;;;21.64;58.96
79461;BME280;68929;42.666;23.324;2023-06-01T07:53:42;94736.84;;;21.79;59.91
79461;BME280;68929;42.666;23.324;2023-06-01T07:56:15;94739.81;;;21.83;59.50
79461;BME280;68929;42.666;23.324;2023-06-01T07:58:40;94731.97;;;21.47;59.20
79461;BME280;68929;42.666;23.324;2023-06-01T08:01:06;94702.59;;;21.12;59.50
79461;BME280;68929;42.666;23.324;2023-06-01T08:03:31;94741.53;;;21.64;58.54
79461;BME280;68929;42.666;23.324;2023-06-01T08:05:59;94695.53;;;21.99;60.59
79461;BME280;68929;42.666;23.324;2023-06-01T08:08:27;94715.44;;;21.64;58.84
79461;BME280;68929;42.666;23.324;2023-06-01T08:10:53;94736.69;;;22.04;60.53
79461;BME280;68929;42.666;23.324;2023-06-01T08:13:18;94725.00;;;22.14;59.91
79461;BME280;68929;42.666;23.324;2023-06-01T08:15:44;94710.31;;;22.30;59.74
79461;BME280;68929;42.666;23.324;2023-06-01T08:18:16;94728.16;;;22.50;59.88
79461;BME280;68929;42.666;23.324;2023-06-01T08:20:41;94716.97;;;22.90;58.79
79461;BME280;68929;42.666;23.324;2023-06-01T08:23:07;94700.38;;;23.20;57.19
79461;BME280;68929;42.666;23.324;2023-06-01T08:25:33;94718.13;;;23.45;56.18
79461;BME280;68929;42.666;23.324;2023-06-01T08:28:02;94700.72;;;23.37;54.84
79461;BME280;68929;42.666;23.324;2023-06-01T08:30:28;94702.41;;;23.52;55.24
79461;BME280;68929;42.666;23.324;2023-06-01T08:32:53;94703.53;;;23.83;55.31
79461;BME280;68929;42.666;23.324;2023-06-01T08:35:19;94688.63;;;24.04;54.34
79461;BME280;68929;42.666;23.324;2023-06-01T08:37:46;94693.69;;;24.24;53.66
79461;BME280;68929;42.666;23.324;2023-06-01T08:40:12;94696.94;;;23.89;52.86
79461;BME280;68929;42.666;23.324;2023-06-01T08:43:20;94696.94;;;23.89;53.17
79461;BME280;68929;42.666;23.324;2023-06-01T08:45:50;94694.28;;;24.21;55.03
79461;BME280;68929;42.666;23.324;2023-06-01T08:48:17;94694.59;;;24.47;52.53
79461;BME280;68929;42.666;23.324;2023-06-01T08:50:47;94697.84;;;24.63;53.39
79461;BME280;68929;42.666;23.324;2023-06-01T08:53:17;94663.09;;;24.42;51.53
79461;BME280;68929;42.666;23.324;2023-06-01T08:55:44;94689.19;;;24.93;52.90
79461;BME280;68929;42.666;23.324;2023-06-01T08:58:12;94679.13;;;24.66;53.66
79461;BME280;68929;42.666;23.324;2023-06-01T09:00:38;94656.22;;;24.64;50.75
79461;BME280;68929;42.666;23.324;2023-06-01T09:03:15;94653.06;;;25.11;52.71
79461;BME280;68929;42.666;23.324;2023-06-01T09:05:40;94675.22;;;25.13;53.26
79461;BME280;68929;42.666;23.324;2023-06-01T09:08:07;94672.06;;;25.47;52.91
79461;BME280;68929;42.666;23.324;2023-06-01T09:10:33;94657.44;;;25.34;50.22
79461;BME280;68929;42.666;23.324;2023-06-01T09:13:01;94654.03;;;25.64;48.17
79461;BME280;68929;42.666;23.324;2023-06-01T09:15:28;94659.72;;;25.98;49.10
79461;BME280;68929;42.666;23.324;2023-06-01T09:18:11;94667.06;;;26.29;46.59
79461;BME280;68929;42.666;23.324;2023-06-01T09:20:49;94657.06;;;25.85;46.16
79461;BME280;68929;42.666;23.324;2023-06-01T09:23:35;94651.97;;;25.61;46.58
79461;BME280;68929;42.666;23.324;2023-06-01T09:26:11;94678.19;;;25.96;45.07
79461;BME280;68929;42.666;23.324;2023-06-01T09:28:56;94669.72;;;26.11;47.89
79461;BME280;68929;42.666;23.324;2023-06-01T09:31:39;94670.97;;;26.36;45.10
79461;BME280;68929;42.666;23.324;2023-06-01T09:34:09;94660.19;;;26.23;44.52
79461;BME280;68929;42.666;23.324;2023-06-01T09:36:36;94664.97;;;26.03;41.24
79461;BME280;68929;42.666;23.324;2023-06-01T09:39:11;94626.97;;;25.86;43.56
79461;BME280;68929;42.666;23.324;2023-06-01T09:41:54;94652.16;;;26.40;41.79
79461;BME280;68929;42.666;23.324;2023-06-01T09:44:25;94643.31;;;26.03;41.91
79461;BME280;68929;42.666;23.324;2023-06-01T09:46:53;94648.09;;;25.40;43.94
79461;BME280;68929;42.666;23.324;2023-06-01T09:51:46;94631.56;;;24.51;44.21
79461;BME280;68929;42.666;23.324;2023-06-01T09:54:26;94622.56;;;24.42;42.56
79461;BME280;68929;42.666;23.324;2023-06-01T09:57:09;94623.84;;;24.18;47.15
79461;BME280;68929;42.666;23.324;2023-06-01T09:59:39;94633.25;;;24.07;46.58
79461;BME280;68929;42.666;23.324;2023-06-01T10:02:06;94621.47;;;24.57;48.09
79461;BME280;68929;42.666;23.324;2023-06-01T10:04:33;94607.25;;;24.24;49.82
79461;BME280;68929;42.666;23.324;2023-06-01T10:07:08;94582.94;;;24.24;48.52
79461;BME280;68929;42.666;23.324;2023-06-01T10:09:37;94600.25;;;24.50;48.54
79461;BME280;68929;42.666;23.324;2023-06-01T10:12:04;94608.75;;;24.57;48.70
79461;BME280;68929;42.666;23.324;2023-06-01T10:14:30;94612.84;;;24.41;46.40
79461;BME280;68929;42.666;23.324;2023-06-01T10:16:57;94621.06;;;24.36;46.60
79461;BME280;68929;42.666;23.324;2023-06-01T10:19:22;94585.47;;;24.34;45.39
79461;BME280;68929;42.666;23.324;2023-06-01T10:21:51;94615.06;;;24.39;43.09
79461;BME280;68929;42.666;23.324;2023-06-01T10:24:24;94610.19;;;23.96;45.45
79461;BME280;68929;42.666;23.324;2023-06-01T10:27:19;94621.16;;;24.31;46.21
79461;BME280;68929;42.666;23.324;2023-06-01T10:29:52;94617.94;;;24.43;44.21
79461;BME280;68929;42.666;23.324;2023-06-01T10:40:47;94621.34;;;24.21;44.22
79461;BME280;68929;42.666;23.324;2023-06-01T10:46:34;94613.34;;;24.71;42.72
79461;BME280;68929;42.666;23.324;2023-06-01T10:49:00;94605.63;;;24.91;42.73
79461;BME280;68929;42.666;23.324;2023-06-01T10:51:25;94607.19;;;25.19;42.96
79461;BME280;68929;42.666;23.324;2023-06-01T10:53:51;94597.06;;;25.47;42.75
79461;BME280;68929;42.666;23.324;2023-06-01T10:56:20;94607.03;;;25.60;43.81
79461;BME280;68929;42.666;23.324;2023-06-01T11:01:44;94579.47;;;25.36;42.13
79461;BME280;68929;42.666;23.324;2023-06-01T11:04:11;94584.94;;;25.67;42.42
79461;BME280;68929;42.666;23.324;2023-06-01T11:06:45;94584.66;;;25.10;40.12
79461;BME280;68929;42.666;23.324;2023-06-01T11:09:15;94585.38;;;25.38;40.93
79461;BME280;68929;42.666;23.324;2023-06-01T11:14:21;94585.41;;;24.89;41.11
79461;BME280;68929;42.666;23.324;2023-06-01T11:16:49;94587.63;;;24.32;41.86
79461;BME280;68929;42.666;23.324;2023-06-01T11:19:21;94585.88;;;23.50;49.64
79461;BME280;68929;42.666;23.324;2023-06-01T11:22:03;94588.81;;;23.35;51.39
79461;BME280;68929;42.666;23.324;2023-06-01T11:24:37;94580.78;;;23.30;50.47
79461;BME280;68929;42.666;23.324;2023-06-01T11:27:11;94550.91;;;23.08;49.72
79461;BME280;68929;42.666;23.324;2023-06-01T11:29:37;94570.91;;;23.07;46.24
79461;BME280;68929;42.666;23.324;2023-06-01T11:32:05;94562.88;;;22.64;47.00
79461;BME280;68929;42.666;23.324;2023-06-01T11:34:38;94571.75;;;22.41;49.89
79461;BME280;68929;42.666;23.324;2023-06-01T11:37:14;94546.06;;;21.83;50.82
79461;BME280;68929;42.666;23.324;2023-06-01T11:39:43;94591.50;;;21.84;53.77
79461;BME280;68929;42.666;23.324;2023-06-01T11:44:41;94595.63;;;21.09;57.42
79461;BME280;68929;42.666;23.324;2023-06-01T11:47:13;94570.16;;;20.53;58.49
79461;BME280;68929;42.666;23.324;2023-06-01T11:49:46;94600.53;;;20.48;60.44
79461;BME280;68929;42.666;23.324;2023-06-01T11:52:13;94575.22;;;19.90;60.26
79461;BME280;68929;42.666;23.324;2023-06-01T11:54:39;94597.81;;;19.44;61.87
79461;BME280;68929;42.666;23.324;2023-06-01T11:57:19;94615.81;;;19.34;62.56
79461;BME280;68929;42.666;23.324;2023-06-01T11:59:46;94625.69;;;19.33;62.78
79461;BME280;68929;42.666;23.324;2023-06-01T12:02:27;94618.69;;;19.07;66.20
79461;BME280;68929;42.666;23.324;2023-06-01T12:04:57;94621.59;;;18.75;67.93
79461;BME280;68929;42.666;23.324;2023-06-01T12:07:26;94604.53;;;18.29;69.20
79461;BME280;68929;42.666;23.324;2023-06-01T12:09:52;94602.91;;;18.23;70.78
79461;BME280;68929;42.666;23.324;2023-06-01T12:12:31;94593.81;;;18.29;70.13
79461;BME280;68929;42.666;23.324;2023-06-01T12:14:58;94595.38;;;18.10;73.81
79461;BME280;68929;42.666;23.324;2023-06-01T12:20:38;94591.84;;;17.53;74.62
79461;BME280;68929;42.666;23.324;2023-06-01T12:28:20;94573.97;;;18.10;75.21
79461;BME280;68929;42.666;23.324;2023-06-01T12:33:36;94553.59;;;17.99;75.13
79461;BME280;68929;42.666;23.324;2023-06-01T12:36:27;94541.19;;;17.78;75.96
79461;BME280;68929;42.666;23.324;2023-06-01T12:39:00;94545.34;;;18.06;75.06
79461;BME280;68929;42.666;23.324;2023-06-01T12:41:27;94530.91;;;18.17;74.27
79461;BME280;68929;42.666;23.324;2023-06-01T12:43:54;94552.72;;;18.51;74.85
79461;BME280;68929;42.666;23.324;2023-06-01T12:46:22;94532.88;;;18.42;76.60
79461;BME280;68929;42.666;23.324;2023-06-01T12:48:48;94521.66;;;18.45;74.91
79461;BME280;68929;42.666;23.324;2023-06-01T12:51:14;94531.03;;;18.47;75.09
79461;BME280;68929;42.666;23.324;2023-06-01T12:53:48;94508.56;;;18.58;75.27
79461;BME280;68929;42.666;23.324;2023-06-01T12:56:17;94512.06;;;18.79;74.47
79461;BME280;68929;42.666;23.324;2023-06-01T12:58:43;94521.69;;;19.20;73.65
79461;BME280;68929;42.666;23.324;2023-06-01T13:01:09;94484.44;;;19.24;73.26
79461;BME280;68929;42.666;23.324;2023-06-01T13:03:35;94515.78;;;19.58;72.65
79461;BME280;68929;42.666;23.324;2023-06-01T13:06:00;94519.22;;;19.69;70.33
79461;BME280;68929;42.666;23.324;2023-06-01T13:08:26;94509.66;;;20.12;69.20
79461;BME280;68929;42.666;23.324;2023-06-01T13:10:52;94503.97;;;20.28;67.98
79461;BME280;68929;42.666;23.324;2023-06-01T13:13:19;94501.38;;;20.57;69.46
79461;BME280;68929;42.666;23.324;2023-06-01T13:15:45;94491.38;;;20.67;65.07
79461;BME280;68929;42.666;23.324;2023-06-01T13:18:14;94475.84;;;20.98;65.42
79461;BME280;68929;42.666;23.324;2023-06-01T13:20:39;94480.34;;;21.36;63.81
79461;BME280;68929;42.666;23.324;2023-06-01T13:23:10;94460.84;;;21.49;62.40
79461;BME280;68929;42.666;23.324;2023-06-01T13:25:37;94466.56;;;21.43;60.60
79461;BME280;68929;42.666;23.324;2023-06-01T13:28:03;94464.75;;;21.62;59.96
79461;BME280;68929;42.666;23.324;2023-06-01T13:30:29;94471.97;;;21.67;60.46
79461;BME280;68929;42.666;23.324;2023-06-01T13:32:55;94443.69;;;21.45;60.51
79461;BME280;68929;42.666;23.324;2023-06-01T13:35:21;94467.13;;;21.64;59.26
79461;BME280;68929;42.666;23.324;2023-06-01T13:37:46;94476.56;;;21.90;56.59
79461;BME280;68929;42.666;23.324;2023-06-01T13:40:12;94466.38;;;21.87;56.00
79461;BME280;68929;42.666;23.324;2023-06-01T13:42:42;94451.56;;;22.08;56.69
79461;BME280;68929;42.666;23.324;2023-06-01T13:45:14;94453.06;;;21.95;56.19